Data for 12/21/2014

Time Sea-Level Adjusted Pressure Absolute Pressure Temperature Relative Humidity Dew Point   
(mb) (inHg) (mb) (inHg) (C) (F) (%) (C) (F)
00:05 1008 29.77 838 24.75 1.1 34 62 -5.4 22.3
00:10 1008 29.77 838 24.75 1.6 34.8 59 -5.6 21.8
00:15 1008 29.77 837 24.72 1.6 34.9 61 -5.2 22.6
00:20 1008 29.77 837 24.72 1.5 34.6 62 -5.1 22.7
00:25 1008 29.77 837 24.72 1.3 34.4 63 -5 23
00:30 1008 29.77 837 24.72 1.2 34.2 62 -5.2 22.6
00:35 1008 29.77 837 24.72 1.6 34.9 60 -5.3 22.5
00:40 1008 29.77 837 24.72 1.7 35.1 60 -5.2 22.7
00:45 1008 29.77 837 24.72 2.1 35.8 59 -5.2 22.7
00:50 1008 29.77 837 24.72 2.1 35.8 60 -4.9 23.1
00:55 1008 29.77 837 24.72 1.9 35.4 60 -5.1 22.8
01:00 1008 29.77 837 24.72 1.8 35.3 60 -5.1 22.8
01:05 1007 29.74 837 24.72 1.7 35 62 -4.8 23.3
01:10 1007 29.74 837 24.72 1.5 34.7 63 -4.8 23.4
01:15 1007 29.74 836 24.69 1.6 34.8 60 -5.4 22.2
01:20 1007 29.74 836 24.69 2 35.6 59 -5.2 22.6
01:25 1007 29.74 836 24.69 2.2 36 56 -5.6 21.9
01:30 1007 29.74 836 24.69 2.8 37 54 -5.7 21.8
01:35 1007 29.74 836 24.69 3.6 38.5 50 -5.7 21.7
01:40 1007 29.74 836 24.69 3.9 39 50 -5.5 22.1
01:45 1007 29.74 836 24.69 3.9 39 52 -5.1 22.9
01:50 1006 29.71 836 24.69 3.9 39.1 51 -5.3 22.4
01:55 1006 29.71 836 24.69 4.1 39.4 50 -5.3 22.4
02:00 1006 29.71 835 24.66 4.3 39.7 51 -4.9 23.2
02:05 1006 29.71 835 24.66 4 39.1 57 -3.8 25.1
02:10 1006 29.71 835 24.66 2.4 36.3 60 -4.6 23.7
02:15 1006 29.71 835 24.66 2 35.6 61 -4.7 23.6
02:20 1006 29.71 835 24.66 2 35.5 61 -4.8 23.4
02:25 1006 29.71 835 24.66 2 35.6 61 -4.7 23.5
02:30 1006 29.71 835 24.66 1.9 35.4 61 -4.7 23.5
02:35 1006 29.71 835 24.66 1.8 35.3 61 -4.8 23.4
02:40 1006 29.71 835 24.66 2.1 35.7 59 -5.2 22.7
02:45 1006 29.71 835 24.66 2.7 36.8 57 -4.9 23.2
02:50 1006 29.71 835 24.66 2.9 37.2 57 -4.7 23.6
02:55 1005 29.68 835 24.66 2.7 36.8 58 -4.7 23.6
03:00 1005 29.68 835 24.66 2.5 36.5 59 -4.7 23.6
03:05 1005 29.68 835 24.66 2.5 36.4 59 -4.8 23.3
03:10 1005 29.68 835 24.66 2.8 37 58 -4.7 23.6
03:15 1005 29.68 835 24.66 3.1 37.6 57 -4.7 23.6
03:20 1005 29.68 835 24.66 3.3 38 57 -4.3 24.2
03:25 1005 29.68 834 24.63 3.3 37.9 57 -4.3 24.2
03:30 1005 29.68 835 24.66 3.5 38.2 57 -4.4 24.1
03:35 1005 29.68 835 24.66 3.5 38.2 56 -4.4 24
03:40 1005 29.68 835 24.66 3.6 38.4 57 -4.2 24.4
03:45 1005 29.68 835 24.66 3.5 38.3 57 -4.1 24.6
03:50 1006 29.71 835 24.66 3.5 38.3 56 -4.5 24
03:55 1005 29.68 835 24.66 3.8 38.8 56 -4.2 24.5
04:00 1005 29.68 834 24.63 3.8 38.8 56 -4.2 24.5
04:05 1004 29.65 834 24.63 3.4 38.1 60 -3.6 25.6
04:10 1004 29.65 833 24.6 2.9 37.2 61 -3.9 24.9
04:15 1005 29.68 834 24.63 2.9 37.2 61 -3.8 25.1
04:20 1005 29.68 834 24.63 3.1 37.6 60 -4 24.8
04:25 1005 29.68 834 24.63 3.2 37.7 60 -3.9 24.9
04:30 1005 29.68 834 24.63 2.9 37.1 61 -3.8 25.1
04:35 1005 29.68 834 24.63 2.8 37.1 61 -3.9 24.9
04:40 1005 29.68 834 24.63 3.3 37.9 59 -3.9 25
04:45 1005 29.68 834 24.63 3.4 38.1 61 -3.4 26
04:50 1005 29.68 834 24.63 3 37.3 63 -3.4 25.9
04:55 1004 29.65 834 24.63 2.9 37.3 60 -4 24.8
05:00 1004 29.65 833 24.6 3.4 38.1 59 -3.9 25
05:05 1004 29.65 833 24.6 3.8 38.8 57 -3.9 25.1
05:10 1004 29.65 833 24.6 4 39.2 58 -3.5 25.6
05:15 1004 29.65 833 24.6 3.9 39.1 58 -3.5 25.8
05:20 1004 29.65 833 24.6 3.9 39 59 -3.5 25.8
05:25 1004 29.65 833 24.6 3.5 38.3 60 -3.5 25.6
05:30 1004 29.65 833 24.6 3.4 38 60 -3.6 25.5
05:35 1004 29.65 833 24.6 3.3 38 61 -3.5 25.8
05:40 1004 29.65 833 24.6 3.2 37.8 62 -3.4 25.8
05:45 1004 29.65 833 24.6 3.2 37.8 62 -3.5 25.7
05:50 1004 29.65 833 24.6 3.2 37.7 62 -3.4 25.8
05:55 1003 29.62 833 24.6 3.1 37.6 62 -3.4 26
06:00 1003 29.62 832 24.57 3.2 37.7 63 -3.3 26.1
06:05 1003 29.62 832 24.57 2.9 37.2 63 -3.4 25.9
06:10 1003 29.62 832 24.57 2.9 37.1 63 -3.4 25.8
06:15 1003 29.62 832 24.57 3.2 37.8 61 -3.5 25.6
06:20 1003 29.62 832 24.57 3.8 38.8 58 -3.7 25.4
06:25 1003 29.62 832 24.57 4.4 39.8 57 -3.5 25.7
06:30 1003 29.62 832 24.57 4.4 40 58 -3.2 26.3
06:35 1003 29.62 832 24.57 4.3 39.8 58 -3.2 26.3
06:40 1003 29.62 832 24.57 4.4 40 60 -2.7 27.1
06:45 1003 29.62 832 24.57 4.4 39.9 57 -3.3 26
06:50 1003 29.62 832 24.57 4.3 39.8 57 -3.3 26
06:55 1003 29.62 832 24.57 4.2 39.5 58 -3.3 26
07:00 1003 29.62 832 24.57 4.2 39.5 58 -3.3 26.1
07:05 1003 29.62 832 24.57 4.4 39.9 57 -3.3 26.1
07:10 1003 29.62 832 24.57 4.5 40.1 58 -3.1 26.3
07:15 1003 29.62 832 24.57 4.3 39.7 59 -2.9 26.7
07:20 1003 29.62 832 24.57 4.3 39.7 59 -2.9 26.7
07:25 1003 29.62 832 24.57 4.4 39.9 59 -2.9 26.8
07:30 1003 29.62 832 24.57 4.7 40.5 59 -2.7 27.2
07:35 1003 29.62 832 24.57 4.8 40.7 63 -1.7 29
07:40 1003 29.62 832 24.57 4.7 40.4 68 -0.7 30.8
07:45 1003 29.62 832 24.57 4.6 40.3 69 -0.6 30.9
07:50 1003 29.62 832 24.57 4.6 40.3 69 -0.5 31.1
07:55 1003 29.62 832 24.57 4.5 40.1 69 -0.7 30.7
08:00 1003 29.62 832 24.57 4.5 40.1 67 -1 30.1
08:05 1002 29.59 832 24.57 4.6 40.2 67 -0.9 30.3
08:10 1002 29.59 832 24.57 4.7 40.4 62 -1.9 28.6
08:15 1002 29.59 832 24.57 5.4 41.7 61 -1.5 29.2
08:20 1002 29.59 831 24.54 5.3 41.5 61 -1.5 29.3
08:25 1002 29.59 832 24.57 5.1 41.2 63 -1.4 29.6
08:30 1002 29.59 832 24.57 4.8 40.6 65 -1.3 29.7
08:35 1003 29.62 832 24.57 4.6 40.2 65 -1.5 29.3
08:40 1003 29.62 832 24.57 4.6 40.2 65 -1.4 29.4
08:45 1003 29.62 832 24.57 4.5 40.1 67 -1.1 30
08:50 1003 29.62 832 24.57 4.3 39.7 68 -1.1 30
08:55 1003 29.62 832 24.57 4.2 39.5 69 -1.1 30
09:00 1003 29.62 832 24.57 4 39.2 69 -1.1 30
09:05 1003 29.62 832 24.57 3.8 38.9 70 -1.2 29.8
09:10 1003 29.62 832 24.57 3.8 38.9 68 -1.5 29.3
09:15 1003 29.62 832 24.57 4.1 39.3 66 -1.6 29
09:20 1003 29.62 832 24.57 4.3 39.7 64 -1.8 28.7
09:25 1003 29.62 832 24.57 4.6 40.3 63 -1.8 28.7
09:30 1003 29.62 832 24.57 4.9 40.9 61 -2 28.3
09:35 1003 29.62 832 24.57 5.2 41.3 65 -0.9 30.4
09:40 1003 29.62 832 24.57 4.4 40 66 -1.4 29.4
09:45 1003 29.62 832 24.57 4.4 40 66 -1.3 29.7
09:50 1003 29.62 832 24.57 4.1 39.5 69 -1 30.2
09:55 1003 29.62 833 24.6 3.8 38.9 71 -1 30.2
10:00 1003 29.62 833 24.6 3.7 38.6 71 -1.2 29.9
10:05 1004 29.65 833 24.6 3.8 38.9 70 -1.2 29.8
10:10 1004 29.65 833 24.6 4 39.2 69 -1.2 29.9
10:15 1004 29.65 833 24.6 4 39.2 69 -1.1 30
10:20 1004 29.65 833 24.6 4 39.2 69 -1.1 30
10:25 1004 29.65 833 24.6 4 39.2 69 -1.1 30.1
10:30 1004 29.65 833 24.6 4 39.2 70 -1 30.2
10:35 1004 29.65 833 24.6 4 39.2 68 -1.3 29.7
10:40 1004 29.65 833 24.6 4.4 39.9 67 -1.2 29.8
10:45 1004 29.65 833 24.6 4.5 40.2 68 -0.8 30.5
10:50 1004 29.65 833 24.6 4.4 39.9 71 -0.5 31.1
10:55 1004 29.65 833 24.6 4.3 39.7 71 -0.6 30.9
11:00 1004 29.65 833 24.6 4.2 39.6 73 -0.2 31.6
11:05 1004 29.65 833 24.6 3.9 39.1 75 -0.2 31.7
11:10 1004 29.65 833 24.6 3.8 38.8 76 -0.1 31.8
11:15 1004 29.65 833 24.6 3.7 38.7 77 0 32.1
11:20 1004 29.65 833 24.6 3.8 38.9 77 0.1 32.1
11:25 1004 29.65 833 24.6 3.7 38.6 78 0.2 32.4
11:30 1004 29.65 833 24.6 3.7 38.6 75 -0.3 31.4
11:35 1004 29.65 833 24.6 4.2 39.5 76 0.4 32.7
11:40 1004 29.65 833 24.6 3.8 38.9 80 0.6 33.1
11:45 1004 29.65 833 24.6 3.1 37.6 85 0.7 33.3
11:50 1004 29.65 833 24.6 2.7 36.8 86 0.5 32.9
11:55 1004 29.65 833 24.6 2.8 37 87 0.8 33.4
12:00 1004 29.65 833 24.6 2.9 37.2 86 0.7 33.3
12:05 1004 29.65 834 24.63 3.1 37.6 85 0.9 33.6
12:10 1004 29.65 834 24.63 3.1 37.6 86 0.9 33.7
12:15 1004 29.65 834 24.63 3 37.4 86 0.8 33.4
12:20 1004 29.65 834 24.63 3.1 37.5 85 0.8 33.4
12:25 1005 29.68 834 24.63 3.2 37.7 84 0.8 33.4
12:30 1005 29.68 834 24.63 3.2 37.8 84 0.7 33.3
12:35 1004 29.65 834 24.63 3.3 37.9 81 0.3 32.5
12:40 1005 29.68 834 24.63 3.5 38.3 78 0.1 32.2
12:45 1005 29.68 834 24.63 3.6 38.5 78 0.2 32.3
12:50 1005 29.68 834 24.63 3.5 38.3 74 -0.6 30.9
12:55 1005 29.68 834 24.63 3.6 38.4 72 -0.9 30.3
13:00 1005 29.68 834 24.63 3.7 38.6 71 -1.1 30
13:05 1005 29.68 834 24.63 3.7 38.6 70 -1.3 29.7
13:10 1005 29.68 834 24.63 3.7 38.6 68 -1.7 29
13:15 1005 29.68 834 24.63 3.6 38.6 65 -2.3 27.9
13:20 1005 29.68 834 24.63 3.9 39 61 -3 26.5
13:25 1005 29.68 834 24.63 4.1 39.4 59 -3.1 26.4
13:30 1005 29.68 834 24.63 4.2 39.5 59 -3.1 26.4
13:35 1005 29.68 834 24.63 4.2 39.6 59 -3.1 26.4
13:40 1005 29.68 834 24.63 4.2 39.6 60 -3 26.7
13:45 1005 29.68 834 24.63 4.2 39.6 59 -3 26.6
13:50 1005 29.68 834 24.63 4.2 39.5 60 -2.9 26.7
13:55 1005 29.68 835 24.66 4.1 39.5 59 -3.1 26.4
14:00 1005 29.68 835 24.66 4.2 39.5 58 -3.4 26
14:05 1005 29.68 835 24.66 4.3 39.8 58 -3.2 26.2
14:10 1005 29.68 835 24.66 4.3 39.8 58 -3.3 26.1
14:15 1005 29.68 835 24.66 4.4 39.8 58 -3.2 26.3
14:20 1005 29.68 835 24.66 4.4 39.9 57 -3.4 25.9
14:25 1005 29.68 835 24.66 4.5 40.1 55 -3.8 25.2
14:30 1005 29.68 835 24.66 4.5 40.1 55 -3.9 25
14:35 1006 29.71 835 24.66 4.5 40.1 54 -4.1 24.7
14:40 1006 29.71 835 24.66 4.5 40.1 54 -3.9 24.9
14:45 1006 29.71 835 24.66 4.5 40.2 55 -3.8 25.1
14:50 1006 29.71 835 24.66 4.5 40.1 56 -3.6 25.5
14:55 1006 29.71 835 24.66 4.4 39.9 57 -3.3 26
15:00 1006 29.71 835 24.66 4.2 39.6 59 -3.2 26.3
15:05 1006 29.71 835 24.66 4.1 39.4 58 -3.5 25.7
15:10 1006 29.71 835 24.66 4.3 39.8 56 -3.7 25.3
15:15 1006 29.71 835 24.66 4.5 40 56 -3.5 25.7
15:20 1006 29.71 835 24.66 4.5 40.1 57 -3.3 26
15:25 1006 29.71 835 24.66 4.3 39.8 58 -3.2 26.2
15:30 1006 29.71 835 24.66 4.1 39.5 59 -3.1 26.3
15:35 1006 29.71 836 24.69 4 39.2 60 -3.1 26.4
15:40 1006 29.71 836 24.69 4 39.3 58 -3.5 25.7
15:45 1007 29.74 836 24.69 4.1 39.4 58 -3.3 26
15:50 1007 29.74 836 24.69 4 39.2 57 -3.7 25.3
15:55 1007 29.74 836 24.69 4 39.1 58 -3.6 25.6
16:00 1007 29.74 836 24.69 3.8 38.9 59 -3.5 25.7
16:05 1007 29.74 836 24.69 3.7 38.6 60 -3.3 26.1
16:10 1007 29.74 836 24.69 3.5 38.3 62 -3.1 26.4
16:15 1007 29.74 836 24.69 3.3 37.9 66 -2.5 27.5
16:20 1007 29.74 836 24.69 2.6 36.7 76 -1.2 29.8
16:25 1007 29.74 836 24.69 1.9 35.4 78 -1.5 29.3
16:30 1007 29.74 836 24.69 1.8 35.3 75 -2.1 28.2
16:35 1007 29.74 836 24.69 2.1 35.8 73 -2.3 27.8
16:40 1007 29.74 836 24.69 2.2 36 73 -2.2 28.1
16:45 1007 29.74 836 24.69 2.3 36.2 69 -2.7 27.1
16:50 1007 29.74 837 24.72 2.5 36.6 69 -2.5 27.4
16:55 1008 29.77 837 24.72 2.5 36.5 71 -2.2 28.1
17:00 1008 29.77 837 24.72 2.3 36.2 74 -1.8 28.7
17:05 1008 29.77 837 24.72 2.2 35.9 75 -1.7 28.9
17:10 1008 29.77 837 24.72 2 35.6 77 -1.7 29
17:15 1008 29.77 837 24.72 1.8 35.3 77 -1.7 28.9
17:20 1008 29.77 837 24.72 1.7 35 81 -1.2 29.8
17:25 1008 29.77 837 24.72 1.3 34.4 84 -1.1 30
17:30 1008 29.77 837 24.72 1.2 34.1 85 -1.1 30
17:35 1008 29.77 838 24.75 1.1 34 85 -1.1 30
17:40 1008 29.77 838 24.75 1.1 34 86 -1.1 30.1
17:45 1009 29.8 838 24.75 1.1 33.9 86 -1.1 30.1
17:50 1009 29.8 838 24.75 1 33.8 87 -1 30.3
17:55 1009 29.8 838 24.75 0.8 33.4 88 -1 30.3
18:00 1009 29.8 838 24.75 0.6 33.2 88 -1.2 29.9
18:05 1009 29.8 838 24.75 0.6 33 86 -1.5 29.3
18:10 1009 29.8 838 24.75 0.7 33.3 84 -1.6 29.1
18:15 1009 29.8 838 24.75 0.8 33.4 82 -2 28.4
18:20 1009 29.8 838 24.75 1 33.8 78 -2.5 27.6
18:25 1009 29.8 839 24.78 1.2 34.2 75 -2.8 27
18:30 1010 29.83 839 24.78 1.4 34.6 73 -2.9 26.8
18:35 1010 29.83 839 24.78 1.4 34.6 75 -2.5 27.5
18:40 1010 29.83 839 24.78 1.3 34.3 77 -2.3 27.9
18:45 1010 29.83 839 24.78 1.1 34 79 -2.1 28.2
18:50 1010 29.83 839 24.78 1 33.8 81 -1.9 28.6
18:55 1010 29.83 839 24.78 0.8 33.5 84 -1.6 29
19:00 1010 29.83 839 24.78 0.6 33.1 87 -1.3 29.7
19:05 1010 29.83 839 24.78 0.4 32.8 88 -1.3 29.7
19:10 1010 29.83 839 24.78 0.3 32.6 88 -1.5 29.4
19:15 1010 29.83 839 24.78 0.2 32.4 88 -1.5 29.4
19:20 1010 29.83 839 24.78 0.1 32.3 88 -1.5 29.2
19:25 1010 29.83 840 24.81 0.1 32.2 89 -1.6 29.2
19:30 1010 29.83 840 24.81 0.1 32.2 89 -1.5 29.2
19:35 1011 29.85 840 24.81 0.4 32.7 87 -1.6 29.1
19:40 1011 29.85 840 24.81 0.5 32.9 86 -1.6 29.1
19:45 1011 29.85 840 24.81 0.7 33.2 81 -2.2 28.1
19:50 1011 29.85 840 24.81 0.9 33.6 79 -2.4 27.8
19:55 1011 29.85 840 24.81 0.9 33.7 76 -2.8 27
20:00 1011 29.85 840 24.81 1 33.9 76 -2.8 27
20:05 1011 29.85 840 24.81 1 33.9 77 -2.6 27.3
20:10 1011 29.85 840 24.81 0.8 33.5 79 -2.4 27.6
20:15 1011 29.85 840 24.81 0.6 33 80 -2.5 27.6
20:20 1011 29.85 840 24.81 0.5 32.9 81 -2.4 27.6
20:25 1010 29.83 840 24.81 0.5 32.9 80 -2.6 27.4
20:30 1010 29.83 840 24.81 0.5 32.8 80 -2.5 27.5
20:35 1010 29.83 840 24.81 0.4 32.8 80 -2.7 27.2
20:40 1011 29.85 840 24.81 0.3 32.6 79 -2.8 26.9
20:45 1011 29.85 840 24.81 0.3 32.5 77 -3.2 26.2
20:50 1011 29.85 840 24.81 0.4 32.7 76 -3.3 26.1
20:55 1011 29.85 840 24.81 0.4 32.7 77 -3.2 26.2
21:00 1011 29.85 840 24.81 0.3 32.6 75 -3.7 25.4
21:05 1011 29.85 840 24.81 0.3 32.5 74 -3.8 25.1
21:10 1011 29.85 840 24.81 0.2 32.4 73 -4.1 24.6
21:15 1011 29.85 840 24.81 0.3 32.6 72 -4.2 24.4
21:20 1011 29.85 840 24.81 0.2 32.3 72 -4.3 24.3
21:25 1011 29.85 841 24.83 -0 31.9 73 -4.3 24.3
21:30 1012 29.88 841 24.83 -0.2 31.7 73 -4.4 24.1
21:35 1011 29.85 841 24.83 -0.2 31.6 74 -4.4 24.1
21:40 1011 29.85 841 24.83 -0.2 31.6 73 -4.4 24.1
21:45 1012 29.88 841 24.83 -0.1 31.8 73 -4.4 24
21:50 1012 29.88 841 24.83 -0.1 31.8 72 -4.6 23.7
21:55 1012 29.88 841 24.83 -0 31.9 71 -4.7 23.5
22:00 1012 29.88 841 24.83 -0 31.9 71 -4.7 23.5
22:05 1012 29.88 841 24.83 -0 32 71 -4.7 23.6
22:10 1012 29.88 841 24.83 -0.1 31.8 72 -4.6 23.7
22:15 1012 29.88 841 24.83 -0.1 31.8 70 -5 23.1
22:20 1012 29.88 841 24.83 0.1 32.2 69 -4.9 23.2
22:25 1012 29.88 841 24.83 0.3 32.5 67 -5.2 22.7
22:30 1012 29.88 841 24.83 0.6 33.1 64 -5.5 22.1
22:35 1012 29.88 841 24.83 0.8 33.5 63 -5.4 22.3
22:40 1012 29.88 841 24.83 0.8 33.5 63 -5.4 22.2
22:45 1012 29.88 841 24.83 0.9 33.6 62 -5.6 22
22:50 1012 29.88 841 24.83 0.9 33.6 62 -5.5 22.1
22:55 1012 29.88 841 24.83 0.8 33.5 64 -5.2 22.6
23:00 1012 29.88 841 24.83 0.8 33.4 64 -5.3 22.5
23:05 1012 29.88 841 24.83 0.7 33.2 65 -5.2 22.6
23:10 1012 29.88 841 24.83 0.6 33.1 65 -5.3 22.5
23:15 1012 29.88 841 24.83 0.5 33 65 -5.3 22.4
23:20 1012 29.88 841 24.83 0.6 33.1 63 -5.6 21.9
23:25 1012 29.88 841 24.83 0.8 33.4 63 -5.5 22.1
23:30 1012 29.88 841 24.83 0.9 33.6 62 -5.6 21.9
23:35 1012 29.88 841 24.83 0.9 33.6 63 -5.4 22.2
23:40 1012 29.88 841 24.83 0.8 33.4 65 -5.2 22.7
23:45 1012 29.88 841 24.83 0.6 33 64 -5.5 22.1
23:50 1012 29.88 841 24.83 0.6 33.1 63 -5.7 21.7
23:55 1012 29.88 841 24.83 0.7 33.3 62 -5.8 21.5
24:00 1012 29.88 841 24.83 0.9 33.6 61 -5.9 21.4